Time;durP1;ratioP1;P1;durP2;ratioP2;P2;SDS_P1;SDS_P2;PMS_P1;PMS_P2;Temp;Humidity;BMP_temperature;BMP_pressure;BME280_temperature;BME280_humidity;BME280_pressure;Samples;Min_cycle;Max_cycle;Signal;HPM_P1;HPM_P2
2021/10/31 00:01:22;;;;;;;35.40;21.03;;;;;;;3.87;100.00;98571.28;5007875;28;20157;-89
2021/10/31 00:03:51;;;;;;;35.40;21.23;;;;;;;3.89;100.00;98564.53;5005104;28;20038;-89
2021/10/31 00:06:17;;;;;;;36.23;20.00;;;;;;;3.76;100.00;98557.69;5026896;28;20041;-88
2021/10/31 00:08:43;;;;;;;36.60;21.23;;;;;;;3.77;100.00;98572.06;5009670;28;20022;-90
2021/10/31 00:11:08;;;;;;;36.17;20.97;;;;;;;3.77;100.00;98569.53;5012377;28;20027;-88
2021/10/31 00:13:35;;;;;;;31.43;19.17;;;;;;;3.85;100.00;98565.34;5014317;28;20069;-88
2021/10/31 00:16:01;;;;;;;36.60;20.10;;;;;;;3.85;100.00;98572.13;5010611;28;20065;-89
2021/10/31 00:18:27;;;;;;;32.77;18.87;;;;;;;3.89;100.00;98573.81;4979728;28;20030;-89
2021/10/31 00:20:53;;;;;;;28.70;18.10;;;;;;;3.83;100.00;98569.56;5005389;28;20036;-89
2021/10/31 00:23:19;;;;;;;33.03;19.27;;;;;;;3.81;100.00;98581.41;5009667;28;20038;-89
2021/10/31 00:25:44;;;;;;;34.70;20.23;;;;;;;3.74;100.00;98578.78;5025272;28;20046;-89
2021/10/31 00:28:11;;;;;;;28.97;18.93;;;;;;;3.69;100.00;98577.06;5021575;28;20038;-88
2021/10/31 00:30:36;;;;;;;32.40;19.07;;;;;;;3.69;100.00;98579.59;5011983;28;20029;-88
2021/10/31 00:33:02;;;;;;;31.47;19.13;;;;;;;3.68;100.00;98579.59;5007203;28;20040;-88
2021/10/31 00:35:31;;;;;;;34.73;19.67;;;;;;;3.73;100.00;98589.78;5008185;28;20030;-90
2021/10/31 00:37:56;;;;;;;31.50;20.17;;;;;;;3.73;100.00;98592.31;5010802;28;20026;-89
2021/10/31 00:40:22;;;;;;;33.20;19.87;;;;;;;3.62;100.00;98577.00;5022808;28;20081;-91
2021/10/31 00:42:47;;;;;;;33.30;20.07;;;;;;;3.67;100.00;98583.81;5028043;28;20098;-92
2021/10/31 00:45:13;;;;;;;30.80;18.63;;;;;;;3.63;100.00;98589.72;5012797;28;20417;-89
2021/10/31 00:47:38;;;;;;;32.53;20.33;;;;;;;3.58;100.00;98577.81;5016232;28;20084;-88
2021/10/31 00:50:05;;;;;;;32.73;18.33;;;;;;;3.62;100.00;98589.69;5013539;28;20458;-90
2021/10/31 00:52:31;;;;;;;34.97;19.93;;;;;;;3.56;100.00;98585.44;5010769;28;20131;-88
2021/10/31 00:54:59;;;;;;;30.93;18.57;;;;;;;3.52;100.00;98575.25;5008793;28;20054;-89
2021/10/31 00:57:26;;;;;;;34.70;19.37;;;;;;;3.46;100.00;98572.66;5007376;28;20644;-89
2021/10/31 00:59:53;;;;;;;33.77;19.47;;;;;;;3.35;100.00;98572.59;5012080;28;20085;-90
2021/10/31 01:02:18;;;;;;;33.27;19.43;;;;;;;3.38;100.00;98586.97;5009312;28;20033;-90
2021/10/31 01:04:53;;;;;;;31.70;19.03;;;;;;;3.46;100.00;98576.06;5014201;28;20044;-91
2021/10/31 01:07:42;;;;;;;32.03;19.88;;;;;;;3.44;100.00;98559.97;5042950;28;20037;-90
2021/10/31 01:10:27;;;;;;;28.07;17.53;;;;;;;3.68;100.00;98575.38;5028329;28;20057;-89
2021/10/31 01:12:56;;;;;;;28.87;17.13;;;;;;;3.77;100.00;98573.75;5040208;28;20043;-89
2021/10/31 01:15:31;;;;;;;29.30;17.30;;;;;;;3.68;100.00;98565.25;5016699;28;20057;-88
2021/10/31 01:18:36;;;;;;;32.37;19.63;;;;;;;3.83;100.00;98584.78;5007017;28;20084;-89
2021/10/31 01:21:22;;;;;;;31.40;17.43;;;;;;;3.87;100.00;98590.72;5004089;28;20131;-89
2021/10/31 01:24:15;;;;;;;33.03;18.87;;;;;;;4.00;100.00;98577.28;5008922;28;20132;-89
2021/10/31 01:27:01;;;;;;;28.53;17.10;;;;;;;3.98;100.00;98589.97;5009315;28;20036;-89
2021/10/31 01:30:12;;;;;;;29.65;18.08;;;;;;;3.96;100.00;98593.31;5004793;28;20359;-89
2021/10/31 01:32:45;;;;;;;30.40;18.17;;;;;;;3.88;100.00;98584.81;4989980;28;20125;-90
2021/10/31 01:35:41;;;;;;;34.70;20.77;;;;;;;3.79;100.00;98585.59;5005180;28;20112;-89
2021/10/31 01:38:35;;;;;;;30.42;17.17;;;;;;;3.67;100.00;98588.88;5003307;28;20041;-90
2021/10/31 01:41:12;;;;;;;33.57;19.27;;;;;;;3.62;100.00;98590.53;5021584;28;20504;-89
2021/10/31 01:43:59;;;;;;;31.10;17.33;;;;;;;3.61;100.00;98595.59;5027632;28;20489;-89
2021/10/31 01:46:55;;;;;;;29.03;19.07;;;;;;;3.68;100.00;98598.19;5005806;28;20122;-89
2021/10/31 01:49:46;;;;;;;29.33;16.95;;;;;;;3.65;100.00;98595.63;5026159;28;20098;-89
2021/10/31 01:52:28;;;;;;;29.03;18.33;;;;;;;3.50;100.00;98577.78;5013206;28;20137;-89
2021/10/31 01:55:04;;;;;;;29.87;17.60;;;;;;;3.58;100.00;98588.81;5026370;28;20160;-90
2021/10/31 01:57:34;;;;;;;31.60;16.97;;;;;;;3.52;100.00;98593.81;5011203;28;20057;-88
2021/10/31 02:00:13;;;;;;;31.03;18.23;;;;;;;3.57;100.00;98588.78;5023509;28;20034;-89
2021/10/31 02:02:44;;;;;;;30.73;16.87;;;;;;;3.48;100.00;98583.69;5002846;28;20061;-89
2021/10/31 02:05:13;;;;;;;29.83;16.87;;;;;;;3.48;100.00;98609.84;5022286;28;20030;-90
2021/10/31 02:07:50;;;;;;;31.77;19.10;;;;;;;3.47;100.00;98607.31;4990008;28;20051;-88
2021/10/31 02:10:17;;;;;;;27.30;17.03;;;;;;;3.49;100.00;98603.09;5004111;28;20033;-89
2021/10/31 02:12:46;;;;;;;29.10;18.50;;;;;;;3.49;100.00;98609.00;5005497;28;20039;-88
2021/10/31 02:15:18;;;;;;;31.43;17.80;;;;;;;3.40;100.00;98588.66;4987941;28;20046;-87
2021/10/31 02:17:48;;;;;;;36.03;19.33;;;;;;;3.48;100.00;98603.94;5021399;28;20034;-92
2021/10/31 02:20:15;;;;;;;30.63;18.63;;;;;;;3.36;100.00;98592.00;5011744;28;20037;-88
2021/10/31 02:22:43;;;;;;;33.43;20.03;;;;;;;3.36;100.00;98593.69;5003480;28;20057;-89
2021/10/31 02:25:11;;;;;;;32.90;18.93;;;;;;;3.23;100.00;98580.06;5001184;28;20042;-89
2021/10/31 02:27:42;;;;;;;31.20;19.97;;;;;;;3.21;100.00;98582.59;5006443;28;20450;-91
2021/10/31 02:30:09;;;;;;;38.33;21.40;;;;;;;3.30;100.00;98602.09;5008248;28;20049;-90
2021/10/31 02:32:34;;;;;;;32.77;19.70;;;;;;;3.22;100.00;98596.13;5004606;28;20042;-89
2021/10/31 02:35:00;;;;;;;34.93;20.03;;;;;;;3.22;100.00;98599.47;5012012;28;20041;-90
2021/10/31 02:37:28;;;;;;;37.47;20.87;;;;;;;3.21;100.00;98594.41;5003508;28;20489;-88
2021/10/31 02:39:55;;;;;;;35.37;18.90;;;;;;;3.18;100.00;98591.84;5010090;28;20042;-89
2021/10/31 02:42:21;;;;;;;32.17;20.43;;;;;;;3.11;100.00;98605.28;5004613;28;20037;-89
2021/10/31 02:44:47;;;;;;;33.47;19.67;;;;;;;3.07;100.00;98591.75;5006095;28;20045;-89
2021/10/31 02:47:21;;;;;;;37.57;20.43;;;;;;;3.14;100.00;98593.47;5002838;28;20042;-90
2021/10/31 02:49:48;;;;;;;43.17;20.75;;;;;;;3.05;100.00;98598.50;5005868;28;20030;-89
2021/10/31 02:52:53;;;;;;;40.50;21.73;;;;;;;3.08;100.00;98601.03;5019461;28;20044;-88
2021/10/31 02:55:23;;;;;;;36.70;21.63;;;;;;;3.09;100.00;98581.63;5024985;28;20078;-89
2021/10/31 02:58:23;;;;;;;33.30;20.57;;;;;;;3.21;100.00;98604.53;5005233;28;20045;-90
2021/10/31 03:00:55;;;;;;;33.73;18.97;;;;;;;3.14;100.00;98595.19;5009750;28;20030;-89
2021/10/31 03:03:21;;;;;;;34.57;20.47;;;;;;;3.16;100.00;98604.50;5011954;28;20045;-90
2021/10/31 03:05:52;;;;;;;30.10;18.03;;;;;;;3.16;100.00;98596.03;5001985;28;20077;-88
2021/10/31 03:08:18;;;;;;;33.53;19.23;;;;;;;3.23;100.00;98605.38;5008021;28;20033;-88
2021/10/31 03:10:53;;;;;;;29.70;18.93;;;;;;;3.13;100.00;98596.03;5013897;28;20403;-89
2021/10/31 03:13:19;;;;;;;28.60;17.40;;;;;;;3.09;100.00;98585.00;5010898;28;20032;-90
2021/10/31 03:15:44;;;;;;;30.80;18.53;;;;;;;3.05;100.00;98577.38;5026334;28;20038;-90
2021/10/31 03:18:10;;;;;;;31.63;19.43;;;;;;;3.07;100.00;98591.75;5025850;28;20106;-89
2021/10/31 03:20:35;;;;;;;30.50;19.10;;;;;;;3.06;100.00;98604.38;5006556;28;20061;-89
2021/10/31 03:23:01;;;;;;;30.03;18.97;;;;;;;2.96;100.00;98600.06;5012500;28;20030;-89
2021/10/31 03:25:26;;;;;;;32.90;19.63;;;;;;;3.04;100.00;98614.50;5007658;28;20497;-89
2021/10/31 03:27:52;;;;;;;35.17;19.27;;;;;;;3.04;100.00;98608.59;5010085;28;20034;-89
2021/10/31 03:30:18;;;;;;;29.80;19.07;;;;;;;3.02;100.00;98605.19;5003385;28;20068;-89
2021/10/31 03:32:44;;;;;;;36.67;21.33;;;;;;;3.00;100.00;98604.31;5024368;28;20034;-90
2021/10/31 03:35:10;;;;;;;36.13;19.70;;;;;;;2.92;100.00;98609.31;5006690;28;20072;-90
2021/10/31 03:37:36;;;;;;;35.23;20.17;;;;;;;2.81;100.00;98605.78;5026895;28;20030;-90
2021/10/31 03:40:03;;;;;;;36.87;20.60;;;;;;;2.84;100.00;98615.13;5004048;28;20026;-89
2021/10/31 03:42:29;;;;;;;33.73;19.03;;;;;;;2.69;100.00;98608.19;5008335;28;20347;-89
2021/10/31 03:44:58;;;;;;;36.37;20.73;;;;;;;2.75;100.00;98616.72;5010179;28;20041;-89
2021/10/31 03:47:26;;;;;;;33.70;19.50;;;;;;;2.68;100.00;98609.00;5008679;28;20065;-87
2021/10/31 03:49:52;;;;;;;30.83;18.33;;;;;;;2.73;100.00;98615.00;5011145;28;20121;-89
2021/10/31 03:55:40;;;;;;;31.00;17.07;;;;;;;2.67;100.00;98618.28;4999808;28;20069;-88
2021/10/31 03:58:06;;;;;;;34.60;19.03;;;;;;;2.71;100.00;98625.13;5028824;28;20030;-89
2021/10/31 04:00:33;;;;;;;32.20;18.20;;;;;;;2.70;100.00;98622.56;5008279;28;20049;-89
2021/10/31 04:03:00;;;;;;;33.17;19.00;;;;;;;2.67;100.00;98632.66;5009297;28;20030;-89
2021/10/31 04:05:25;;;;;;;33.37;18.70;;;;;;;2.50;100.00;98614.72;5003686;28;20089;-88
2021/10/31 04:07:51;;;;;;;30.73;18.23;;;;;;;2.50;100.00;98617.25;5010682;28;20458;-90
2021/10/31 04:10:17;;;;;;;33.67;18.50;;;;;;;2.57;100.00;98626.63;5023796;28;20035;-88
2021/10/31 04:12:42;;;;;;;35.50;20.83;;;;;;;2.56;100.00;98635.03;5005633;28;20057;-88
2021/10/31 04:15:08;;;;;;;32.07;19.57;;;;;;;2.60;100.00;98630.84;5027384;28;20034;-88
2021/10/31 04:17:35;;;;;;;32.10;19.77;;;;;;;2.61;100.00;98635.94;5010425;28;20034;-90
2021/10/31 04:20:01;;;;;;;30.30;18.47;;;;;;;2.57;100.00;98636.75;5033191;28;20067;-88
2021/10/31 04:22:29;;;;;;;41.67;22.43;;;;;;;2.67;100.00;98638.53;5018250;28;20050;-87
2021/10/31 04:24:55;;;;;;;34.97;21.37;;;;;;;2.62;100.00;98640.19;5011906;28;20030;-89
2021/10/31 04:27:25;;;;;;;39.30;21.23;;;;;;;2.52;100.00;98615.59;5011945;28;20044;-87
2021/10/31 04:29:51;;;;;;;39.30;21.70;;;;;;;2.56;100.00;98629.97;5007780;28;20038;-90
2021/10/31 04:32:21;;;;;;;39.33;21.37;;;;;;;2.48;100.00;98625.66;5012016;28;20042;-88
2021/10/31 04:34:48;;;;;;;45.53;24.83;;;;;;;2.50;100.00;98640.03;5009250;28;20547;-88
2021/10/31 04:37:14;;;;;;;40.87;23.57;;;;;;;2.39;100.00;98635.63;5002395;28;20359;-90
2021/10/31 04:39:45;;;;;;;39.33;22.90;;;;;;;2.38;100.00;98629.72;5008489;28;20038;-89
2021/10/31 04:42:11;;;;;;;48.80;25.10;;;;;;;2.35;100.00;98629.69;5003731;28;20027;-88
2021/10/31 04:44:37;;;;;;;46.50;25.77;;;;;;;2.44;100.00;98639.09;5002775;28;20054;-88
2021/10/31 04:47:03;;;;;;;43.40;25.03;;;;;;;2.36;100.00;98641.53;5005438;28;20489;-90
2021/10/31 04:49:29;;;;;;;45.47;25.47;;;;;;;2.30;100.00;98633.84;5007974;28;20030;-89
2021/10/31 04:51:57;;;;;;;47.93;27.03;;;;;;;2.50;100.00;98634.13;5036849;28;20026;-90
2021/10/31 04:54:25;;;;;;;51.27;28.27;;;;;;;2.52;100.00;98640.88;5019015;28;20080;-89
2021/10/31 04:56:50;;;;;;;48.87;26.87;;;;;;;2.33;100.00;98633.03;5014029;28;20050;-89
2021/10/31 04:59:18;;;;;;;46.37;26.33;;;;;;;2.39;100.00;98640.69;5017087;28;20033;-89
2021/10/31 05:01:45;;;;;;;51.20;26.37;;;;;;;2.30;100.00;98647.34;5011434;28;20037;-87
2021/10/31 05:04:22;;;;;;;56.63;30.23;;;;;;;2.29;100.00;98644.81;5012102;28;20120;-91
2021/10/31 05:06:54;;;;;;;52.50;29.43;;;;;;;2.37;100.00;98645.75;5018852;28;20433;-91
2021/10/31 05:09:21;;;;;;;50.57;28.63;;;;;;;2.24;100.00;98639.69;5016015;28;20021;-90
2021/10/31 05:11:48;;;;;;;51.80;27.93;;;;;;;2.18;100.00;98641.25;5002114;28;20430;-88
2021/10/31 05:14:14;;;;;;;55.17;30.17;;;;;;;2.16;100.00;98633.66;5009179;28;20056;-89
2021/10/31 05:16:39;;;;;;;48.27;27.80;;;;;;;2.22;100.00;98651.44;5026283;28;20046;-88
2021/10/31 05:19:06;;;;;;;47.57;26.13;;;;;;;2.21;100.00;98648.88;5010518;28;20056;-88
2021/10/31 05:21:32;;;;;;;46.10;25.73;;;;;;;2.13;100.00;98643.72;5010445;28;20445;-89
2021/10/31 05:23:57;;;;;;;48.97;27.60;;;;;;;2.10;100.00;98640.31;5015463;28;20033;-89
2021/10/31 05:26:26;;;;;;;46.77;24.87;;;;;;;2.08;100.00;98639.44;5015175;28;20498;-89
2021/10/31 05:28:57;;;;;;;48.53;25.73;;;;;;;2.22;100.00;98637.94;5010936;28;20034;-89
2021/10/31 05:31:23;;;;;;;45.83;26.97;;;;;;;2.22;100.00;98646.38;5012195;28;20097;-88
2021/10/31 05:33:51;;;;;;;43.37;24.67;;;;;;;2.13;100.00;98637.81;5008007;28;20106;-89
2021/10/31 05:36:17;;;;;;;46.37;25.47;;;;;;;2.20;100.00;98652.25;5030740;28;20028;-90
2021/10/31 05:38:42;;;;;;;45.33;25.57;;;;;;;2.15;100.00;98651.34;5030728;28;20129;-89
2021/10/31 05:41:14;;;;;;;49.13;26.77;;;;;;;2.10;100.00;98645.34;5018040;28;20046;-90
2021/10/31 05:43:41;;;;;;;51.80;26.60;;;;;;;2.05;100.00;98637.69;5007911;28;20030;-89
2021/10/31 05:46:06;;;;;;;43.93;25.27;;;;;;;2.06;100.00;98646.16;5011600;28;20036;-89
2021/10/31 05:48:33;;;;;;;45.17;26.03;;;;;;;2.13;100.00;98656.34;5020309;28;20093;-89
2021/10/31 05:50:58;;;;;;;42.37;23.30;;;;;;;2.12;100.00;98651.31;5026759;28;20025;-91
2021/10/31 05:53:24;;;;;;;39.23;22.80;;;;;;;2.17;100.00;98659.78;5034634;28;20041;-90
2021/10/31 05:55:51;;;;;;;40.50;23.70;;;;;;;2.30;100.00;98674.31;5017271;28;20104;-89
2021/10/31 05:58:17;;;;;;;35.33;21.30;;;;;;;2.30;100.00;98665.03;5008108;28;20026;-89
2021/10/31 06:00:43;;;;;;;34.37;21.63;;;;;;;2.34;100.00;98665.06;5010623;28;20109;-90
2021/10/31 06:03:08;;;;;;;34.27;19.97;;;;;;;2.38;100.00;98664.31;5005987;28;20481;-89
2021/10/31 06:05:34;;;;;;;38.67;21.50;;;;;;;2.41;100.00;98672.78;5011557;28;20397;-89
2021/10/31 06:08:00;;;;;;;35.13;20.27;;;;;;;2.45;100.00;98677.06;5010166;28;20081;-89
2021/10/31 06:10:26;;;;;;;34.97;19.53;;;;;;;2.40;100.00;98672.75;5006400;28;20031;-89
2021/10/31 06:12:52;;;;;;;28.63;17.10;;;;;;;2.50;100.00;98684.72;5008902;28;20090;-90
2021/10/31 06:15:21;;;;;;;30.43;17.67;;;;;;;2.53;100.00;98682.22;5009271;28;20113;-89
2021/10/31 06:17:47;;;;;;;32.13;19.50;;;;;;;2.68;100.00;98693.38;5007743;28;20038;-88
2021/10/31 06:20:15;;;;;;;27.97;17.33;;;;;;;2.65;100.00;98669.72;5026627;28;20030;-89
2021/10/31 06:22:41;;;;;;;28.53;17.77;;;;;;;2.85;100.00;98692.75;5006232;28;20029;-90
2021/10/31 06:25:13;;;;;;;30.80;18.00;;;;;;;2.87;100.00;98686.03;5026297;28;20030;-92
2021/10/31 06:27:39;;;;;;;30.17;18.87;;;;;;;2.86;100.00;98687.72;5043019;28;20035;-93
2021/10/31 06:33:26;;;;;;;35.73;20.43;;;;;;;2.86;100.00;98675.06;5009696;28;20025;-90
2021/10/31 06:35:52;;;;;;;33.07;20.73;;;;;;;2.90;100.00;98694.50;5019528;28;20069;-88
2021/10/31 06:38:22;;;;;;;33.93;20.23;;;;;;;3.04;100.00;98699.75;5013682;28;20510;-88
2021/10/31 06:40:48;;;;;;;32.60;21.03;;;;;;;3.05;100.00;98702.31;5033510;28;20034;-90
2021/10/31 06:43:15;;;;;;;33.50;20.53;;;;;;;3.12;100.00;98700.69;5012486;28;20053;-88
2021/10/31 06:45:44;;;;;;;34.83;20.40;;;;;;;3.23;100.00;98697.44;5026211;28;20045;-90
2021/10/31 06:48:10;;;;;;;38.67;22.57;;;;;;;3.23;100.00;98688.97;5012918;28;20041;-88
2021/10/31 06:50:36;;;;;;;37.83;22.33;;;;;;;3.29;100.00;98699.19;5036073;28;20038;-89
2021/10/31 06:53:02;;;;;;;41.07;22.80;;;;;;;3.47;100.00;98709.53;5006417;28;20045;-88
2021/10/31 06:55:29;;;;;;;35.87;22.03;;;;;;;3.68;100.00;98707.22;5022938;28;20109;-88
2021/10/31 06:57:56;;;;;;;42.00;23.60;;;;;;;3.84;100.00;98705.66;5014792;28;20062;-89
2021/10/31 07:00:22;;;;;;;45.77;25.37;;;;;;;3.89;100.00;98698.94;5016161;28;20389;-90
2021/10/31 07:02:49;;;;;;;43.13;24.73;;;;;;;3.97;100.00;98704.06;5018075;28;20512;-89
2021/10/31 07:05:14;;;;;;;40.63;22.50;;;;;;;4.23;100.00;98707.66;5022467;28;20037;-90
2021/10/31 07:07:41;;;;;;;38.40;23.77;;;;;;;4.31;100.00;98693.34;5006488;28;20038;-89
2021/10/31 07:10:07;;;;;;;36.07;22.33;;;;;;;4.54;100.00;98713.81;5006338;28;20026;-88
2021/10/31 07:12:32;;;;;;;38.13;23.50;;;;;;;4.46;100.00;98701.03;5009007;28;20053;-89
2021/10/31 07:14:59;;;;;;;39.77;25.33;;;;;;;4.53;100.00;98712.09;5025485;28;20086;-89
2021/10/31 07:17:25;;;;;;;40.73;26.03;;;;;;;4.55;100.00;98703.63;5008354;28;20037;-89
2021/10/31 07:19:51;;;;;;;43.03;25.30;;;;;;;4.70;100.00;98700.34;5014705;28;20054;-88
2021/10/31 07:22:19;;;;;;;48.07;29.07;;;;;;;4.94;100.00;98712.31;5015650;28;20115;-87
2021/10/31 07:24:47;;;;;;;44.17;27.67;;;;;;;5.05;100.00;98705.56;5015477;28;20026;-87
2021/10/31 07:27:12;;;;;;;55.90;31.90;;;;;;;5.21;100.00;98706.50;5025956;28;20094;-90
2021/10/31 07:29:38;;;;;;;56.93;32.90;;;;;;;5.29;100.00;98697.19;5011073;28;20109;-91
2021/10/31 07:32:04;;;;;;;56.87;35.03;;;;;;;5.59;100.00;98716.78;5009018;28;20442;-88
2021/10/31 07:34:30;;;;;;;64.60;37.73;;;;;;;5.66;100.00;98705.75;5001741;28;20045;-88
2021/10/31 07:36:58;;;;;;;61.00;38.10;;;;;;;5.71;100.00;98711.69;5010726;28;20054;-88
2021/10/31 07:39:23;;;;;;;68.37;43.67;;;;;;;5.88;100.00;98716.00;5012026;28;20026;-88
2021/10/31 07:41:50;;;;;;;65.23;40.77;;;;;;;5.98;100.00;98711.78;5009719;28;20172;-90
2021/10/31 07:44:16;;;;;;;79.27;43.40;;;;;;;5.96;100.00;98709.22;5012942;28;20497;-87
2021/10/31 07:46:42;;;;;;;93.60;53.17;;;;;;;6.10;100.00;98718.56;5017692;28;20080;-91
2021/10/31 07:49:10;;;;;;;97.87;56.23;;;;;;;6.25;100.00;98708.34;5009711;28;20080;-87
2021/10/31 07:51:36;;;;;;;93.43;54.60;;;;;;;6.44;100.00;98715.16;5005207;28;20035;-89
2021/10/31 07:54:01;;;;;;;93.47;56.33;;;;;;;6.59;100.00;98715.09;5004555;28;20425;-87
2021/10/31 07:56:31;;;;;;;87.23;54.40;;;;;;;6.55;100.00;98710.03;5008688;28;20066;-90
2021/10/31 07:58:58;;;;;;;87.97;54.23;;;;;;;6.75;100.00;98716.75;5010541;28;20049;-87
2021/10/31 08:01:24;;;;;;;88.00;55.60;;;;;;;6.80;100.00;98712.50;5028921;28;20057;-89
2021/10/31 08:03:53;;;;;;;91.83;54.33;;;;;;;6.85;100.00;98717.59;5014310;28;20474;-88
2021/10/31 08:06:23;;;;;;;88.30;52.70;;;;;;;6.91;100.00;98707.41;5014563;28;20033;-90
2021/10/31 08:08:49;;;;;;;80.17;50.27;;;;;;;7.06;100.00;98714.97;5005667;28;20106;-89
2021/10/31 08:11:17;;;;;;;85.80;51.80;;;;;;;7.14;100.00;98718.34;4986937;28;20340;-88
2021/10/31 08:13:45;;;;;;;82.00;51.13;;;;;;;7.23;100.00;98723.41;4997403;28;20046;-89
2021/10/31 08:16:11;;;;;;;87.07;51.63;;;;;;;7.32;100.00;98717.41;5025246;28;20044;-90
2021/10/31 08:18:36;;;;;;;80.57;51.57;;;;;;;7.50;100.00;98716.50;5036219;28;20204;-91
2021/10/31 08:21:02;;;;;;;79.37;50.83;;;;;;;7.66;100.00;98707.88;5038892;28;20029;-91
2021/10/31 08:23:29;;;;;;;82.40;51.30;;;;;;;7.47;100.00;98683.34;5030424;28;20088;-90
2021/10/31 08:25:56;;;;;;;75.00;47.40;;;;;;;7.79;100.00;98705.25;5027117;28;20058;-91
2021/10/31 08:28:21;;;;;;;74.30;48.27;;;;;;;7.92;100.00;98703.44;5019636;28;20069;-89
2021/10/31 08:31:00;;;;;;;74.43;47.87;;;;;;;8.05;100.00;98689.75;4989174;28;20468;-88
2021/10/31 08:33:32;;;;;;;73.93;47.50;;;;;;;8.30;100.00;98692.09;5011005;28;20029;-88
2021/10/31 08:36:04;;;;;;;70.13;46.23;;;;;;;8.47;100.00;98680.03;5010055;28;20026;-90
2021/10/31 08:38:31;;;;;;;67.97;44.87;;;;;;;8.65;100.00;98697.75;5006026;28;20401;-89
2021/10/31 08:40:57;;;;;;;67.73;46.57;;;;;;;8.63;100.00;98686.66;5010394;28;20030;-88
2021/10/31 08:43:23;;;;;;;68.23;44.90;;;;;;;8.47;100.00;98685.13;5009811;28;20045;-89
2021/10/31 08:45:51;;;;;;;73.47;45.80;;;;;;;8.63;100.00;98682.41;5010645;28;20057;-88
2021/10/31 08:48:18;;;;;;;68.57;45.27;;;;;;;8.88;100.00;98684.69;5013145;28;20030;-88
2021/10/31 08:53:38;;;;;;;74.93;46.87;;;;;;;9.07;100.00;98678.50;5016253;28;20025;-90
2021/10/31 08:56:06;;;;;;;68.22;45.45;;;;;;;9.00;100.00;98666.66;5044003;28;20042;-89
2021/10/31 08:58:31;;;;;;;68.20;46.23;;;;;;;8.98;100.00;98668.38;5038155;28;20042;-88
2021/10/31 09:00:58;;;;;;;64.33;42.70;;;;;;;9.13;100.00;98671.59;5010930;28;20030;-87
2021/10/31 09:03:24;;;;;;;68.17;44.20;;;;;;;9.17;100.00;98663.00;5013204;28;20062;-87
2021/10/31 09:05:52;;;;;;;64.45;44.58;;;;;;;9.23;100.00;98662.09;5008579;28;20034;-88
2021/10/31 09:08:20;;;;;;;67.23;46.07;;;;;;;9.37;100.00;98667.03;5030098;28;20026;-88
2021/10/31 09:11:09;;;;;;;64.80;45.25;;;;;;;9.61;100.00;98662.41;5033792;28;20061;-88
2021/10/31 09:13:35;;;;;;;65.22;43.30;;;;;;;9.48;100.00;98658.34;5016372;28;20044;-88
2021/10/31 09:16:02;;;;;;;64.35;43.38;;;;;;;9.78;100.00;98651.91;5016590;28;20159;-88
2021/10/31 09:18:29;;;;;;;65.10;44.85;;;;;;;10.03;100.00;98653.22;5013108;28;20482;-88
2021/10/31 09:20:54;;;;;;;61.95;43.70;;;;;;;10.30;100.00;98663.91;4993584;28;20137;-88
2021/10/31 09:23:22;;;;;;;60.58;43.60;;;;;;;10.27;100.00;98638.34;5011899;28;20089;-89
2021/10/31 09:25:51;;;;;;;60.67;42.47;;;;;;;10.43;100.00;98647.44;5014177;28;20437;-87
2021/10/31 09:28:17;;;;;;;63.60;45.15;;;;;;;10.45;100.00;98649.09;5003709;28;20033;-87
2021/10/31 09:30:43;;;;;;;60.72;43.25;;;;;;;10.61;100.00;98649.66;5026847;28;20037;-88
2021/10/31 09:33:11;;;;;;;62.15;43.75;;;;;;;10.86;100.00;98644.91;5005785;28;20437;-87
2021/10/31 09:35:47;;;;;;;63.90;45.25;;;;;;;10.98;100.00;98622.41;5007964;28;20025;-89
2021/10/31 09:38:15;;;;;;;62.45;43.88;;;;;;;11.20;100.00;98639.94;5022695;28;20053;-88
2021/10/31 09:40:42;;;;;;;55.10;40.92;;;;;;;11.40;100.00;98648.03;5005087;28;20193;-88
2021/10/31 09:43:07;;;;;;;59.72;42.03;;;;;;;11.23;100.00;98633.00;5004058;28;20037;-88
2021/10/31 09:45:36;;;;;;;55.50;40.63;;;;;;;11.52;100.00;98622.09;5008868;28;20038;-87
2021/10/31 09:48:04;;;;;;;65.93;43.25;;;;;;;11.56;100.00;98625.41;5006343;28;20042;-88
2021/10/31 09:50:33;;;;;;;59.55;43.20;;;;;;;11.36;100.00;98619.03;5007294;28;20389;-89
2021/10/31 09:53:00;;;;;;;55.58;38.10;;;;;;;11.37;100.00;98635.28;5012009;28;20038;-88
2021/10/31 09:55:31;;;;;;;53.28;39.88;;;;;;;11.43;100.00;98607.72;5005894;28;20018;-89
2021/10/31 09:57:58;;;;;;;55.40;39.97;;;;;;;11.55;100.00;98619.44;5014140;28;20049;-88
2021/10/31 10:00:34;;;;;;;55.28;39.70;;;;;;;11.48;100.00;98617.91;5016686;28;20034;-88
2021/10/31 10:05:28;;;;;;;53.97;38.75;;;;;;;11.65;100.00;98592.69;5014918;28;20042;-89
2021/10/31 10:08:15;;;;;;;52.95;38.10;;;;;;;11.81;100.00;98606.88;5013342;28;20172;-88
2021/10/31 10:10:52;;;;;;;57.63;39.85;;;;;;;11.51;100.00;98599.00;5009440;28;20026;-90
2021/10/31 10:13:26;;;;;;;48.08;36.33;;;;;;;11.54;100.00;98597.25;5015392;28;20374;-89
2021/10/31 10:16:12;;;;;;;49.10;37.60;;;;;;;11.60;100.00;98581.66;5006423;28;20042;-89
2021/10/31 10:18:38;;;;;;;49.75;36.88;;;;;;;11.71;100.00;98592.50;5009975;28;20029;-88
2021/10/31 10:21:23;;;;;;;54.03;37.63;;;;;;;11.90;100.00;98586.09;5005623;28;20045;-89
2021/10/31 10:23:56;;;;;;;49.38;36.45;;;;;;;11.99;100.00;98585.00;5010184;28;20092;-90
2021/10/31 10:26:36;;;;;;;51.85;36.33;;;;;;;12.08;99.58;98578.81;5006890;28;20601;-89
2021/10/31 10:29:15;;;;;;;47.08;34.67;;;;;;;12.14;100.00;98583.75;5005311;28;20064;-90
2021/10/31 10:31:44;;;;;;;47.08;35.03;;;;;;;12.19;99.72;98584.50;5021008;28;20030;-90
2021/10/31 10:34:42;;;;;;;44.17;33.58;;;;;;;12.18;97.54;98557.94;5009087;28;20045;-87
2021/10/31 10:37:16;;;;;;;46.40;33.60;;;;;;;12.24;98.69;98568.06;5009391;28;20022;-89
2021/10/31 10:39:53;;;;;;;47.97;35.05;;;;;;;12.14;98.38;98568.34;5010969;28;20049;-87
2021/10/31 10:42:33;;;;;;;46.83;33.92;;;;;;;12.17;98.65;98552.88;5015323;28;20062;-90
2021/10/31 10:45:02;;;;;;;42.88;35.33;;;;;;;12.08;100.00;98533.41;5022426;28;20026;-91
2021/10/31 10:47:31;;;;;;;48.08;34.85;;;;;;;12.19;98.72;98538.22;5013220;28;20409;-88
2021/10/31 10:49:58;;;;;;;46.42;33.75;;;;;;;12.38;98.00;98538.59;5005041;28;20041;-89
2021/10/31 10:52:30;;;;;;;43.65;33.25;;;;;;;12.53;97.04;98540.72;5011818;28;20065;-91
2021/10/31 10:55:24;;;;;;;46.70;32.60;;;;;;;12.33;97.79;98506.13;5023330;28;20041;-94
2021/10/31 10:57:53;;;;;;;40.15;29.75;;;;;;;12.56;95.99;98509.78;4974760;28;20694;-89
2021/10/31 11:00:31;;;;;;;43.72;32.67;;;;;;;12.53;96.05;98510.69;4968800;28;20031;-90
2021/10/31 11:02:59;;;;;;;40.13;31.45;;;;;;;12.65;95.57;98518.06;4963575;28;20062;-89
2021/10/31 11:05:29;;;;;;;43.55;31.73;;;;;;;12.46;96.33;98490.34;4980891;28;20080;-89
2021/10/31 11:07:55;;;;;;;44.28;32.42;;;;;;;12.42;96.22;98492.19;4964376;28;20438;-89
2021/10/31 11:10:26;;;;;;;41.25;30.65;;;;;;;12.44;96.77;98487.81;4966396;28;20031;-90
2021/10/31 11:13:00;;;;;;;40.33;31.02;;;;;;;12.54;97.15;98493.53;4982169;28;20047;-88
2021/10/31 11:15:29;;;;;;;43.03;32.35;;;;;;;12.51;97.97;98481.63;4959517;28;20058;-88
2021/10/31 11:17:57;;;;;;;41.42;29.67;;;;;;;12.76;97.17;98481.75;4978175;28;20031;-91
2021/10/31 11:20:33;;;;;;;44.10;32.70;;;;;;;12.80;96.64;98476.47;5003988;28;20018;-91
2021/10/31 11:23:04;;;;;;;39.00;30.30;;;;;;;12.86;95.71;98464.31;4978457;28;20035;-90
2021/10/31 11:25:35;;;;;;;37.92;29.30;;;;;;;13.06;93.80;98449.91;4970663;28;20038;-90
2021/10/31 11:28:08;;;;;;;39.78;29.13;;;;;;;13.24;92.92;98458.78;4983833;28;20047;-90
2021/10/31 11:30:35;;;;;;;38.67;27.95;;;;;;;13.10;90.94;98437.78;4987199;28;20042;-90
2021/10/31 11:33:05;;;;;;;38.25;28.25;;;;;;;13.20;90.94;98440.03;4972521;28;20027;-89
2021/10/31 11:35:32;;;;;;;33.95;26.40;;;;;;;13.31;89.18;98434.56;4989176;28;20007;-92
2021/10/31 11:38:03;;;;;;;35.92;28.55;;;;;;;13.34;90.33;98431.88;4955391;28;20629;-91
2021/10/31 11:40:34;;;;;;;36.95;27.70;;;;;;;13.40;89.33;98430.84;4973254;28;20082;-92